Little Valley, Nevada Weather observations

Data are for 10 minute period ending at time listed.
 Day   Time    Ave.   Ave.  Ave.  Vector   Max.   Total    Solar   
  of    of     Air    Rel.  Wind   Wind    Wind  Precip.   Rad.    
Year   Day     Temp.  Hum.  Speed  Dir.    Gust                    
2016   (PST)    F      %     mph   deg.    mph     in.     W/m2    
------------------------------------------------------------------- 
 338   13:00   48.0    31    3.0    41      8.0   26.05     491  
 338   14:00   48.0    34    3.0    44      8.0   26.05     446  
 338   15:00  999.0   999  999.0   999    999.0   26.05     999  
 338   16:00   32.0    78    0.0   201      6.0   26.05      85  
 338   17:00   28.0    85    1.0   197      3.0   26.05      11  
 338   18:00   25.0    89    0.0   237      2.0   26.05       0  
 338   19:00   24.0    91    0.0   225      1.0   26.05       0  
 338   20:00   22.0    90    0.0   247      2.0   26.05       0  
 338   21:00   20.0    90    0.0   317      2.0   26.05       0  
 338   22:00   20.0    89    1.0   169      2.0   26.05       0  
 338   23:00   19.0    92    0.0   175      2.0   26.05       0  
 339    0:00   18.0    93    0.0   331      2.0   26.05       0  
 339    1:00   19.0    93    1.0   181      4.0   26.05       0  
 339    2:00   24.0    86    2.0   166      6.0   26.05       0  
 339    3:00   27.0    77    3.0   160      6.0   26.05       0  
 339    4:00   31.0    64    3.0   194      8.0   26.05       0  
 339    5:00   44.0    37    5.0   268     15.0   26.05       0  
 339    6:00   42.0    45    5.0   261     14.0   26.05       0  
 339    7:00   41.0    52    5.0   223     14.0   26.05       0  
 339    8:00   42.0    54    6.0   225     15.0   26.05      10  
 339    9:00   44.0    46    9.0   184     24.0   26.05      60  
 339   10:00   45.0    46    7.0   217     19.0   26.05      78  
 339   11:00   49.0    37    8.0   207     25.0   26.05     356  
 339   12:00   48.0    38   11.0   254     27.0   26.05     444  

Return to Little Valley, Nevada graphs page.


Western Regional Climate Center,wrcc@dri.edu